• Join FlightAware (Why Join?)
  • Login
  • US Flag 
11:27PM EST


 

Airport Tracker/Info


-or-


 

Live Flight TrackerFlight Track Log ✈ UAL109 ✈ 08-Jul-2013 ✈ EGPH / EDI - KEWR

Flight Track Log - Related Links

Times and Time Zones

All times are in EDT time to prevent confusion due to time zone crossing. See the UAL109 flight status page for this flight to view local times or setup timezone preferences in your user account.

Time Position Orientation Groundspeed Altitude Reporting Facility
EDT Latitude Longitude Course Direction KTS MPH feet Rate Location/Type
01:38PM 56.6317 -10.7904 282° West  Level Estimated
01:39PM 56.6433 -10.9838 276° West  Level Estimated
01:40PM 56.6546 -11.1772 276° West  Level Estimated
01:41PM 56.6656 -11.3707 276° West  Level Estimated
01:42PM 56.6763 -11.5644 276° West  Level Estimated
01:43PM 56.6866 -11.7582 276° West  Level Estimated
01:44PM 56.6967 -11.9520 275° West  Level Estimated
01:45PM 56.7065 -12.1460 275° West  Level Estimated
01:46PM 56.7160 -12.3401 275° West  Level Estimated
01:47PM 56.7252 -12.5343 275° West  Level Estimated
01:48PM 56.7341 -12.7285 275° West  Level Estimated
01:49PM 56.7426 -12.9229 275° West  Level Estimated
01:50PM 56.7509 -13.1173 275° West  Level Estimated
01:51PM 56.7589 -13.3118 274° West  Level Estimated
01:52PM 56.7666 -13.5064 274° West  Level Estimated
01:53PM 56.7739 -13.7011 274° West  Level Estimated
01:54PM 56.7810 -13.8959 274° West  Level Estimated
01:55PM 56.7878 -14.0907 274° West  Level Estimated
01:56PM 56.7942 -14.2856 274° West  Level Estimated
01:57PM 56.8004 -14.4806 273° West  Level Estimated
01:58PM 56.8062 -14.6756 273° West  Level Estimated
01:59PM 56.8118 -14.8707 273° West  Level Estimated
02:00PM 56.8170 -15.0659 273° West  Level Estimated
02:01PM 56.8219 -15.2611 273° West  Level Estimated
02:02PM 56.8266 -15.4563 273° West  Level Estimated
02:03PM 56.8309 -15.6516 272° West  Level Estimated
02:04PM 56.8349 -15.8469 272° West  Level Estimated
02:05PM 56.8386 -16.0423 272° West  Level Estimated
02:06PM 56.8421 -16.2377 272° West  Level Estimated
02:07PM 56.8452 -16.4332 272° West  Level Estimated
02:08PM 56.8480 -16.6287 272° West  Level Estimated
02:09PM 56.8505 -16.8242 271° West  Level Estimated
02:10PM 56.8527 -17.0197 271° West  Level Estimated
02:11PM 56.8545 -17.2152 271° West  Level Estimated
02:12PM 56.8561 -17.4108 271° West  Level Estimated
02:13PM 56.8574 -17.6064 271° West  Level Estimated
02:14PM 56.8584 -17.8020 271° West  Level Estimated
02:15PM 56.8590 -17.9976 270° West  Level Estimated
02:16PM 56.8594 -18.1932 270° West  Level Estimated
02:17PM 56.8594 -18.3888 270° West  Level Estimated
02:18PM 56.8592 -18.5844 270° West  Level Estimated
02:19PM 56.8586 -18.7801 270° West  Level Estimated
02:20PM 56.8578 -18.9757 270° West  Level Estimated
02:21PM 56.8566 -19.1712 269° West  Level Estimated
02:22PM 56.8551 -19.3668 269° West  Level Estimated
02:23PM 56.8533 -19.5624 269° West  Level Estimated
02:24PM 56.8512 -19.7579 269° West  Level Estimated
02:25PM 56.8489 -19.9534 269° West  Level Estimated
02:26PM 56.8461 -20.1489 269° West  Level Estimated
02:27PM 56.8432 -20.3444 268° West  Level Estimated
02:28PM 56.8398 -20.5398 268° West  Level Estimated
02:29PM 56.8362 -20.7352 268° West  Level Estimated
02:30PM 56.8323 -20.9306 268° West  Level Estimated
02:31PM 56.8281 -21.1259 268° West  Level Estimated
02:32PM 56.8235 -21.3211 268° West  Level Estimated
02:33PM 56.8187 -21.5163 267° West  Level Estimated
02:34PM 56.8136 -21.7115 267° West  Level Estimated
02:35PM 56.8081 -21.9066 267° West  Level Estimated
02:36PM 56.8024 -22.1017 267° West  Level Estimated
02:37PM 56.7963 -22.2966 267° West  Level Estimated
02:38PM 56.7900 -22.4916 267° West  Level Estimated
02:39PM 56.7833 -22.6864 267° West  Level Estimated
02:40PM 56.7763 -22.8812 266° West  Level Estimated
02:41PM 56.7691 -23.0759 266° West  Level Estimated
02:42PM 56.7615 -23.2705 266° West  Level Estimated
02:43PM 56.7536 -23.4651 266° West  Level Estimated
02:44PM 56.7455 -23.6596 266° West  Level Estimated
02:45PM 56.7370 -23.8539 266° West  Level Estimated
02:46PM 56.7282 -24.0482 265° West  Level Estimated
02:47PM 56.7191 -24.2424 265° West  Level Estimated
02:48PM 56.7097 -24.4365 265° West  Level Estimated
02:49PM 56.7001 -24.6306 265° West  Level Estimated
02:50PM 56.6901 -24.8245 265° West  Level Estimated
02:51PM 56.6798 -25.0183 265° West  Level Estimated
02:52PM 56.6692 -25.2120 264° West  Level Estimated
02:53PM 56.6583 -25.4056 264° West  Level Estimated
02:54PM 56.6471 -25.5990 264° West  Level Estimated
02:55PM 56.6356 -25.7924 264° West  Level Estimated
02:56PM 56.6238 -25.9856 264° West  Level Estimated
02:57PM 56.6117 -26.1787 264° West  Level Estimated
02:58PM 56.5993 -26.3717 263° West  Level Estimated
02:59PM 56.5867 -26.5646 263° West  Level Estimated
03:00PM 56.5737 -26.7573 263° West  Level Estimated
03:01PM 56.5604 -26.9499 263° West  Level Estimated
03:02PM 56.5468 -27.1424 263° West  Level Estimated
03:03PM 56.5329 -27.3347 263° West  Level Estimated
03:04PM 56.5188 -27.5269 262° West  Level Estimated
03:05PM 56.5043 -27.7189 262° West  Level Estimated
03:06PM 56.4895 -27.9108 262° West  Level Estimated
03:07PM 56.4745 -28.1025 262° West  Level Estimated
03:08PM 56.4591 -28.2941 262° West  Level Estimated
03:09PM 56.4435 -28.4855 262° West  Level Estimated
03:10PM 56.4275 -28.6768 262° West  Level Estimated
03:11PM 56.4113 -28.8679 261° West  Level Estimated
03:12PM 56.3947 -29.0588 261° West  Level Estimated
03:13PM 56.3779 -29.2496 261° West  Level Estimated
03:14PM 56.3608 -29.4402 261° West  Level Estimated
03:15PM 56.3434 -29.6306 261° West  Level Estimated
03:16PM 56.3257 -29.8209 261° West  Level Estimated
03:17PM 56.3077 -30.0109 260° West  Level Estimated
03:18PM 56.2894 -30.2008 260° West  Level Estimated
03:19PM 56.2708 -30.3906 260° West  Level Estimated
03:20PM 56.2520 -30.5801 260° West  Level Estimated
03:21PM 56.2328 -30.7694 260° West  Level Estimated
03:22PM 56.2134 -30.9586 260° West  Level Estimated
03:23PM 56.1936 -31.1475 259° West  Level Estimated
03:24PM 56.1736 -31.3363 259° West  Level Estimated
03:25PM 56.1533 -31.5248 259° West  Level Estimated
03:26PM 56.1327 -31.7132 259° West  Level Estimated
03:27PM 56.1119 -31.9014 259° West  Level Estimated
03:28PM 56.0907 -32.0893 259° West  Level Estimated
03:29PM 56.0692 -32.2771 259° West  Level Estimated
03:30PM 56.0475 -32.4646 258° West  Level Estimated
03:31PM 56.0255 -32.6519 258° West  Level Estimated
03:32PM 56.0032 -32.8390 258° West  Level Estimated
03:33PM 55.9806 -33.0259 258° West  Level Estimated
03:34PM 55.9577 -33.2126 258° West  Level Estimated
03:35PM 55.9346 -33.3990 258° West  Level Estimated
03:36PM 55.9112 -33.5852 257° West  Level Estimated
03:37PM 55.8875 -33.7712 257° West  Level Estimated
03:38PM 55.8635 -33.9570 257° West  Level Estimated
03:39PM 55.8392 -34.1426 257° West  Level Estimated
03:40PM 55.8146 -34.3279 257° West  Level Estimated
03:41PM 55.7898 -34.5129 257° West  Level Estimated
03:42PM 55.7647 -34.6978 256° West  Level Estimated
03:43PM 55.7393 -34.8824 256° West  Level Estimated
03:44PM 55.7137 -35.0667 256° West  Level Estimated
03:45PM 55.6877 -35.2508 256° West  Level Estimated
03:46PM 55.6615 -35.4347 256° West  Level Estimated
03:47PM 55.6351 -35.6183 256° West  Level Estimated
03:48PM 55.6083 -35.8017 256° West  Level Estimated
03:49PM 55.5813 -35.9848 255° West  Level Estimated
03:50PM 55.5540 -36.1676 255° West  Level Estimated
03:51PM 55.5264 -36.3503 255° West  Level Estimated
03:52PM 55.4985 -36.5326 255° West  Level Estimated
03:53PM 55.4704 -36.7147 255° West  Level Estimated
03:54PM 55.4420 -36.8965 255° West  Level Estimated
03:55PM 55.4134 -37.0781 255° West  Level Estimated
03:56PM 55.3844 -37.2594 254° West  Level Estimated
03:57PM 55.3553 -37.4404 254° West  Level Estimated
03:58PM 55.3258 -37.6212 254° West  Level Estimated
03:59PM 55.2961 -37.8017 254° West  Level Estimated
04:00PM 55.2661 -37.9819 254° West  Level Estimated
04:01PM 55.2358 -38.1619 254° West  Level Estimated
04:02PM 55.2053 -38.3416 253° West  Level Estimated
04:03PM 55.1745 -38.5210 253° West  Level Estimated
04:04PM 55.1435 -38.7001 253° West  Level Estimated
04:05PM 55.1122 -38.8789 253° West  Level Estimated
04:06PM 55.0806 -39.0575 253° West  Level Estimated
04:07PM 55.0488 -39.2358 253° West  Level Estimated
04:08PM 55.0167 -39.4138 253° West  Level Estimated
04:09PM 54.9843 -39.5915 252° West  Level Estimated
04:10PM 54.9517 -39.7689 252° West  Level Estimated
04:11PM 54.9188 -39.9461 252° West  Level Estimated
04:12PM 54.8857 -40.1229 252° West  Level Estimated
04:13PM 54.8523 -40.2995 252° West  Level Estimated
04:14PM 54.8187 -40.4757 252° West  Level Estimated
04:15PM 54.7848 -40.6517 252° West  Level Estimated
04:16PM 54.7507 -40.8274 251° West  Level Estimated
04:17PM 54.7163 -41.0027 251° West  Level Estimated
04:18PM 54.6816 -41.1778 251° West  Level Estimated
04:19PM 54.6467 -41.3526 251° West  Level Estimated
04:20PM 54.6115 -41.5271 251° West  Level Estimated
04:21PM 54.5761 -41.7012 251° West  Level Estimated
04:22PM 54.5405 -41.8751 251° West  Level Estimated
04:23PM 54.5046 -42.0487 250° West  Level Estimated
04:24PM 54.4684 -42.2219 250° West  Level Estimated
04:25PM 54.4320 -42.3949 250° West  Level Estimated
04:26PM 54.3954 -42.5675 250° West  Level Estimated
04:27PM 54.3585 -42.7398 250° West  Level Estimated
04:28PM 54.3214 -42.9119 250° West  Level Estimated
04:29PM 54.2840 -43.0836 250° West  Level Estimated
04:30PM 54.2463 -43.2550 249° West  Level Estimated
04:31PM 54.2085 -43.4261 249° West  Level Estimated
04:32PM 54.1704 -43.5968 249° West  Level Estimated
04:33PM 54.1320 -43.7673 249° West  Level Estimated
04:34PM 54.0934 -43.9374 249° West  Level Estimated
04:35PM 54.0546 -44.1073 249° West  Level Estimated
04:36PM 54.0155 -44.2768 249° West  Level Estimated
04:37PM 53.9762 -44.4460 249° West  Level Estimated
04:38PM 53.9367 -44.6148 248° West  Level Estimated
04:39PM 53.8969 -44.7834 248° West  Level Estimated
04:40PM 53.8569 -44.9516 248° West  Level Estimated
04:41PM 53.8166 -45.1195 248° West  Level Estimated
04:42PM 53.7761 -45.2871 248° West  Level Estimated
04:43PM 53.7354 -45.4543 248° West  Level Estimated
04:44PM 53.6945 -45.6213 248° West  Level Estimated
04:45PM 53.6533 -45.7879 247° West  Level Estimated
04:46PM 53.6119 -45.9541 247° West  Level Estimated
04:47PM 53.5703 -46.1201 247° West  Level Estimated
04:48PM 53.5284 -46.2857 247° West  Level Estimated
04:49PM 53.4863 -46.4510 247° West  Level Estimated
04:50PM 53.4440 -46.6160 247° West  Level Estimated
04:51PM 53.4014 -46.7806 247° West  Level Estimated
04:52PM 53.3586 -46.9449 246° West  Level Estimated
04:53PM 53.3156 -47.1089 246° West  Level Estimated
04:54PM 53.2724 -47.2726 246° West  Level Estimated
04:55PM 53.2289 -47.4359 246° West  Level Estimated
04:56PM 53.1852 -47.5989 246° West  Level Estimated
04:57PM 53.1413 -47.7615 246° West  Level Estimated
04:58PM 53.0972 -47.9238 246° West  Level Estimated
04:59PM 53.0529 -48.0858 246° West  Level Estimated
05:00PM 53.0083 -48.2475 245° Southwest  Level Estimated
05:01PM 52.9636 -48.4088 245° Southwest  Level Estimated
05:02PM 52.9185 -48.5698 245° Southwest  Level Estimated
05:03PM 52.8733 -48.7304 245° Southwest  Level Estimated
05:04PM 52.8279 -48.8907 245° Southwest  Level Estimated
05:05PM 52.7823 -49.0507 245° Southwest  Level Estimated
05:06PM 52.7364 -49.2104 245° Southwest  Level Estimated
05:07PM 52.6903 -49.3697 245° Southwest  Level Estimated
05:08PM 52.6440 -49.5286 244° Southwest  Level Estimated
05:09PM 52.5975 -49.6872 244° Southwest  Level Estimated
05:10PM 52.5508 -49.8455 244° Southwest  Level Estimated
05:11PM 52.5039 -50.0035 244° Southwest  Level Estimated
05:12PM 52.4568 -50.1611 244° Southwest  Level Estimated
05:13PM 52.4094 -50.3184 244° Southwest  Level Estimated
05:14PM 52.3619 -50.4753 244° Southwest  Level Estimated
05:15PM 52.3141 -50.6319 244° Southwest  Level Estimated
05:16PM 52.2662 -50.7882 243° Southwest  Level Estimated
05:17PM 52.2180 -50.9441 243° Southwest  Level Estimated
05:18PM 52.1696 -51.0997 243° Southwest  Level Estimated
05:19PM 52.1211 -51.2550 243° Southwest  Level Estimated
05:20PM 52.0723 -51.4099 243° Southwest  Level Estimated
05:21PM 52.0233 -51.5645 243° Southwest  Level Estimated
05:22PM 51.9741 -51.7187 243° Southwest  Level Estimated
05:23PM 51.9247 -51.8726 243° Southwest  Level Estimated
05:24PM 51.8751 -52.0261 242° Southwest  Level Estimated
05:25PM 51.8253 -52.1794 242° Southwest  Level Estimated
05:26PM 51.7753 -52.3322 242° Southwest  Level Estimated
05:27PM 51.7252 -52.4848 242° Southwest  Level Estimated
05:28PM 51.6748 -52.6370 242° Southwest  Level Estimated
05:29PM 51.6242 -52.7888 242° Southwest  Level Estimated
05:30PM 51.5734 -52.9404 242° Southwest  Level Estimated
05:31PM 51.5225 -53.0915 242° Southwest  Level Estimated
05:32PM 51.4713 -53.2424 241° Southwest  Level Estimated
05:33PM 51.4200 -53.3929 241° Southwest  Level Estimated
05:34PM 51.3684 -53.5431 241° Southwest  Level Estimated
05:35PM 51.3167 -53.6929 241° Southwest  Level Estimated
05:36PM 51.2647 -53.8424 241° Southwest  Level Estimated
05:37PM 51.2126 -53.9915 241° Southwest  Level Estimated
05:38PM 51.1603 -54.1404 241° Southwest  Level Estimated
05:39PM 51.1078 -54.2888 241° Southwest  Level Estimated
05:40PM 51.0551 -54.4370 241° Southwest  Level Estimated
05:41PM 51.0023 -54.5848 240° Southwest  Level Estimated
05:42PM 50.9492 -54.7322 240° Southwest  Level Estimated
05:43PM 50.8960 -54.8794 240° Southwest  Level Estimated
05:44PM 50.8425 -55.0262 240° Southwest  Level Estimated
05:45PM 50.7889 -55.1726 240° Southwest  Level Estimated
05:46PM 50.7351 -55.3187 240° Southwest  Level Estimated
05:47PM 50.6812 -55.4645 240° Southwest  Level Estimated
05:48PM 50.6270 -55.6100 240° Southwest  Level Estimated
05:49PM 50.5727 -55.7551 240° Southwest  Level Estimated
05:50PM 50.5181 -55.8999 239° Southwest  Level Estimated
05:51PM 50.4634 -56.0443 239° Southwest  Level Estimated
05:52PM 50.4086 -56.1884 239° Southwest  Level Estimated
05:53PM 50.3535 -56.3322 239° Southwest  Level Estimated
05:54PM 50.2983 -56.4756 239° Southwest  Level Estimated
05:55PM 50.2429 -56.6187 239° Southwest  Level Estimated
05:56PM 50.1873 -56.7615 239° Southwest  Level Estimated
05:57PM 50.1316 -56.9040 239° Southwest  Level Estimated
05:58PM 50.0756 -57.0461 239° Southwest  Level Estimated
05:59PM 50.0195 -57.1879 238° Southwest  Level Estimated
06:00PM 49.9633 -57.3293 238° Southwest  Level Estimated
06:01PM 49.9068 -57.4704 238° Southwest  Level Estimated
06:02PM 49.8502 -57.6112 238° Southwest  Level Estimated
06:03PM 49.7934 -57.7517 238° Southwest  Level Estimated
06:04PM 49.7365 -57.8918 238° Southwest  Level Estimated
06:05PM 49.6793 -58.0316 238° Southwest  Level Estimated
06:06PM 49.6220 -58.1711 238° Southwest  Level Estimated
06:07PM 49.5646 -58.3102 238° Southwest  Level Estimated
06:08PM 49.5070 -58.4490 237° Southwest  Level Estimated
06:09PM 49.4492 -58.5875 237° Southwest  Level Estimated
06:10PM 49.3912 -58.7257 237° Southwest  Level Estimated
06:11PM 49.3331 -58.8635 237° Southwest  Level Estimated
06:12PM 49.2748 -59.0010 237° Southwest  Level Estimated
06:13PM 49.2164 -59.1382 237° Southwest  Level Estimated
06:14PM 49.1577 -59.2751 237° Southwest  Level Estimated
06:15PM 49.0990 -59.4116 237° Southwest  Level Estimated
06:16PM 49.0400 -59.5478 237° Southwest  Level Estimated
06:17PM 48.9809 -59.6837 237° Southwest  Level Estimated
06:18PM 48.9217 -59.8193 236° Southwest  Level Estimated
06:19PM 48.8623 -59.9545 236° Southwest  Level Estimated
06:20PM 48.8027 -60.0894 236° Southwest  Level Estimated
06:21PM 48.7430 -60.2240 236° Southwest  Level Estimated
06:22PM 48.6831 -60.3583 236° Southwest  Level Estimated
06:23PM 48.6231 -60.4923 236° Southwest  Level Estimated
06:24PM 48.5629 -60.6259 236° Southwest  Level Estimated
06:25PM 48.5025 -60.7593 236° Southwest  Level Estimated
06:26PM 48.4421 -60.8923 236° Southwest  Level Estimated
06:27PM 48.3814 -61.0250 235° Southwest  Level Estimated
06:28PM 48.3206 -61.1573 235° Southwest  Level Estimated
06:29PM 48.2597 -61.2894 235° Southwest  Level Estimated
06:30PM 48.1985 -61.4212 235° Southwest  Level Estimated
06:31PM 48.1373 -61.5526 235° Southwest  Level Estimated
06:32PM 48.0759 -61.6837 235° Southwest  Level Estimated
06:33PM 48.0143 -61.8145 235° Southwest  Level Estimated
06:34PM 47.9526 -61.9450 235° Southwest  Level Estimated
06:35PM 47.8908 -62.0752 235° Southwest  Level Estimated
06:36PM 47.8288 -62.2051 235° Southwest  Level Estimated
06:37PM 47.7666 -62.3346 235° Southwest  Level Estimated
06:38PM 47.7043 -62.4639 234° Southwest  Level Estimated
06:39PM 47.6419 -62.5928 234° Southwest  Level Estimated
06:40PM 47.5793 -62.7214 234° Southwest  Level Estimated
06:41PM 47.5166 -62.8498 234° Southwest  Level Estimated
06:42PM 47.4538 -62.9778 234° Southwest  Level Estimated
06:43PM 47.3907 -63.1055 234° Southwest  Level Estimated
06:44PM 47.3276 -63.2329 234° Southwest  Level Estimated
06:45PM 47.2643 -63.3600 234° Southwest  Level Estimated
06:46PM 47.2009 -63.4868 234° Southwest  Level Estimated
06:47PM 47.1373 -63.6133 234° Southwest  Level Estimated
06:48PM 47.0736 -63.7395 233° Southwest  Level Estimated
06:49PM 47.0098 -63.8654 233° Southwest  Level Estimated
06:50PM 46.9458 -63.9910 233° Southwest  Level Estimated
06:51PM 46.8816 -64.1163 233° Southwest  Level Estimated
06:52PM 46.8174 -64.2413 233° Southwest  Level Estimated
06:53PM 46.7530 -64.3660 233° Southwest  Level Estimated
06:54PM 46.6885 -64.4903 233° Southwest  Level Estimated
06:55PM 46.6238 -64.6144 233° Southwest  Level Estimated
06:56PM 46.5590 -64.7383 233° Southwest  Level Estimated
06:57PM 46.4941 -64.8618 233° Southwest  Level Estimated
06:58PM 46.4290 -64.9850 233° Southwest  Level Estimated
06:59PM 46.3638 -65.1079 232° Southwest  Level Estimated
07:00PM 46.2985 -65.2305 232° Southwest  Level Estimated
07:01PM 46.2331 -65.3528 232° Southwest  Level Estimated
07:02PM 46.1675 -65.4749 232° Southwest  Level Estimated
07:03PM 46.1018 -65.5966 232° Southwest  Level Estimated
07:04PM 46.0359 -65.7181 232° Southwest  Level Estimated
07:05PM 45.9700 -65.8393 232° Southwest  Level Estimated
07:06PM 45.9039 -65.9601 232° Southwest  Level Estimated
07:07PM 45.8376 -66.0807 232° Southwest  Level Estimated
07:08PM 45.7713 -66.2010 232° Southwest  Level Estimated
07:09PM 45.7048 -66.3211 232° Southwest  Level Estimated
07:10PM 45.6382 -66.4408 232° Southwest  Level Estimated
07:11PM 45.5715 -66.5602 231° Southwest  Level Estimated
07:12PM 45.5046 -66.6794 231° Southwest  Level Estimated
07:13PM 45.4376 -66.7983 231° Southwest  Level Estimated
07:14PM 45.3705 -66.9169 231° Southwest  Level Estimated
07:15PM 45.3033 -67.0352 231° Southwest  Level Estimated
07:16PM 45.2360 -67.1533 231° Southwest  Level Estimated
07:17PM 45.1685 -67.2710 231° Southwest  Level Estimated
07:18PM 45.1009 -67.3885 231° Southwest  Level Estimated
07:19PM 45.0332 -67.5057 231° Southwest  Level Estimated
07:20PM 44.9654 -67.6226 231° Southwest  Level Estimated
07:21PM 44.8974 -67.7393 231° Southwest  Level Estimated
07:22PM 44.8294 -67.8556 231° Southwest  Level Estimated
07:23PM 44.7612 -67.9717 230° Southwest  Level Estimated
07:24PM 44.6929 -68.0876 230° Southwest  Level Estimated
07:25PM 44.6245 -68.2031 230° Southwest  Level Estimated
07:26PM 44.5560 -68.3184 230° Southwest  Level Estimated
07:27PM 44.4873 -68.4334 230° Southwest  Level Estimated
07:28PM 44.4185 -68.5481 230° Southwest  Level Estimated
07:29PM 44.3497 -68.6626 230° Southwest  Level Estimated
07:30PM 44.2807 -68.7768 230° Southwest  Level Estimated
07:31PM 44.2116 -68.8907 230° Southwest  Level Estimated
07:32PM 44.1423 -69.0044 230° Southwest  Level Estimated
07:33PM 44.0730 -69.1178 230° Southwest  Level Estimated
07:34PM 44.0036 -69.2309 230° Southwest  Level Estimated
07:35PM 43.9340 -69.3438 229° Southwest  Level Estimated
07:36PM 43.8644 -69.4564 229° Southwest  Level Estimated
07:37PM 43.7946 -69.5687 229° Southwest  Level Estimated
07:38PM 43.7247 -69.6808 229° Southwest  Level Estimated
07:39PM 43.6547 -69.7926 229° Southwest  Level Estimated
07:40PM 43.5846 -69.9042 229° Southwest  Level Estimated
07:41PM 43.5144 -70.0155 229° Southwest  Level Estimated
07:42PM 43.4441 -70.1265 229° Southwest  Level Estimated
07:43PM 43.3737 -70.2373 229° Southwest  Level Estimated
07:44PM 43.3031 -70.3478 229° Southwest  Level Estimated
07:45PM 43.2325 -70.4581 229° Southwest  Level Estimated
07:46PM 43.1618 -70.5681 229° Southwest  Level Estimated
07:47PM 43.0909 -70.6779 229° Southwest  Level Estimated
07:48PM 43.0200 -70.7874 228° Southwest  Level Estimated
07:49PM 42.9489 -70.8966 228° Southwest  Level Estimated
07:50PM 42.8777 -71.0056 228° Southwest  Level Estimated
07:51PM 42.8065 -71.1144 228° Southwest  Level Estimated
07:52PM 42.7351 -71.2228 228° Southwest  Level Estimated
07:53PM 42.6636 -71.3311 228° Southwest  Level Estimated
07:54PM 42.5921 -71.4391 228° Southwest  Level Estimated
07:55PM 42.5204 -71.5468 228° Southwest  Level Estimated
07:56PM 42.4486 -71.6543 228° Southwest  Level Estimated
07:57PM 42.3768 -71.7616 228° Southwest  Level Estimated
07:58PM 42.3048 -71.8686 228° Southwest  Level Estimated
07:59PM 42.2327 -71.9754 228° Southwest  Level Estimated
08:00PM 42.1605 -72.0819 228° Southwest  Level Estimated
08:01PM 42.0883 -72.1882 228° Southwest  Level Estimated
08:02PM 42.0159 -72.2942 227° Southwest  Level Estimated
08:03PM 41.9434 -72.4000 227° Southwest  Level Estimated
08:04PM 41.8709 -72.5055 227° Southwest  Level Estimated
08:05PM 41.7982 -72.6108 227° Southwest  Level Estimated
08:06PM 41.7255 -72.7159 227° Southwest  Level Estimated
08:07PM 41.6526 -72.8208 227° Southwest  Level Estimated
08:08PM 41.5797 -72.9254 227° Southwest  Level Estimated
08:09PM 41.5066 -73.0297 227° Southwest  Level Estimated
08:10PM 41.4335 -73.1339 227° Southwest  Level Estimated
08:11PM 41.3603 -73.2377 227° Southwest  Level Estimated
08:12PM 41.2869 -73.3414 227° Southwest  Level Estimated
08:13PM 41.2135 -73.4448 227° Southwest  Level Estimated
08:14PM 41.1400 -73.5480 227° Southwest  Level Estimated
08:15PM 41.0664 -73.6510 227° Southwest  Level Estimated
08:16PM 40.9927 -73.7537 226° Southwest  Level Estimated
08:17PM 40.9189 -73.8562 226° Southwest  Level Estimated
08:18PM 40.8451 -73.9585 226° Southwest  Level Estimated
08:19PM 40.7711 -74.0606 226° Southwest  Level Estimated
08:20PM 40.6971 -74.1624 226° Southwest  Level Estimated
08:21PM 40.6925 -74.1687 226° Southwest  Level Estimated
08:22PM 40.6925 -74.1687 90° East  Level Estimated
08:23PM 40.6925 -74.1687 90° East  Level Estimated
08:24PM 40.6925 -74.1687 90° East  Level Estimated
08:25PM 40.6925 -74.1687 90° East  Level Estimated
08:26PM 40.6925 -74.1687 90° East  Level Estimated
08:27PM 40.6925 -74.1687 90° East  Level Estimated
08:28PM 40.6925 -74.1687 90° East  Level Estimated
08:29PM 40.6925 -74.1687 90° East  Level Estimated
08:30PM 40.6925 -74.1687 90° East  Level Estimated
08:31PM 40.6925 -74.1687 90° East  Level Estimated
08:32PM 40.6925 -74.1687 90° East  Level Estimated
08:33PM 40.6925 -74.1687 90° East  Level Estimated
08:34PM 40.6925 -74.1687 90° East  Level Estimated
08:35PM 40.6925 -74.1687 90° East  Level Estimated
08:36PM 40.6925 -74.1687 90° East  Level Estimated